createdAt,value
2022-12-05T00:03:10.877Z,28.75
2022-12-05T00:09:42.876Z,27.30
2022-12-05T00:13:00.449Z,26.70
2022-12-05T00:16:20.699Z,26.40
2022-12-05T00:19:37.068Z,27.50
2022-12-05T00:26:12.064Z,27.10
2022-12-05T00:29:29.804Z,27.03
2022-12-05T00:32:45.862Z,27.40
2022-12-05T00:36:01.985Z,27.83
2022-12-05T00:39:20.557Z,25.78
2022-12-05T00:42:36.785Z,25.35
2022-12-05T00:45:53.006Z,25.70
2022-12-05T00:49:12.440Z,25.00
2022-12-05T00:52:28.520Z,26.73
2022-12-05T00:55:47.807Z,24.53
2022-12-05T01:02:20.773Z,23.13
2022-12-05T01:10:30.408Z,21.63
2022-12-05T01:13:47.007Z,21.25
2022-12-05T01:17:04.584Z,20.78
2022-12-05T01:20:21.634Z,19.45
2022-12-05T01:26:53.901Z,20.28
2022-12-05T01:30:11.958Z,21.73
2022-12-05T01:33:28.091Z,21.55
2022-12-05T01:36:44.631Z,21.38
2022-12-05T01:40:01.096Z,20.80
2022-12-05T01:43:24.607Z,21.23
2022-12-05T01:46:44.730Z,20.28
2022-12-05T01:50:01.375Z,21.55
2022-12-05T01:53:18.071Z,21.88
2022-12-05T01:56:34.380Z,22.10
2022-12-05T01:59:56.296Z,22.00
2022-12-05T02:03:18.785Z,23.43
2022-12-05T02:09:50.189Z,19.88
2022-12-05T02:13:11.602Z,20.08
2022-12-05T02:16:35.574Z,22.50
2022-12-05T02:20:30.924Z,22.10
2022-12-05T02:27:16.407Z,21.83
2022-12-05T02:30:36.563Z,22.25
2022-12-05T02:33:56.659Z,22.93
2022-12-05T02:40:35.456Z,21.83
2022-12-05T02:43:58.328Z,21.65
2022-12-05T02:47:18.149Z,22.25
2022-12-05T02:50:38.074Z,21.33
2022-12-05T02:57:11.702Z,21.83
2022-12-05T03:00:29.246Z,20.52
2022-12-05T03:03:45.834Z,21.40
2022-12-05T03:07:06.784Z,21.58
2022-12-05T03:10:27.092Z,21.03
2022-12-05T03:13:48.759Z,21.08
2022-12-05T03:17:09.548Z,22.63
2022-12-05T03:20:31.254Z,19.85
2022-12-05T03:23:51.516Z,19.55
2022-12-05T03:27:13.388Z,19.50
2022-12-05T03:30:31.825Z,21.15
2022-12-05T03:33:51.897Z,19.97
2022-12-05T03:40:32.952Z,20.93
2022-12-05T03:43:55.782Z,21.18
2022-12-05T03:47:16.453Z,21.98
2022-12-05T03:50:35.535Z,20.23
2022-12-05T03:57:11.666Z,19.53
2022-12-05T04:00:29.485Z,20.03
2022-12-05T04:03:52.600Z,20.38
2022-12-05T04:07:12.857Z,20.30
2022-12-05T04:10:36.134Z,21.05
2022-12-05T04:13:56.434Z,19.75
2022-12-05T04:17:17.774Z,20.05
2022-12-05T04:20:52.029Z,19.93
2022-12-05T04:24:23.237Z,19.68
2022-12-05T04:27:44.615Z,20.18
2022-12-05T04:31:06.766Z,19.98
2022-12-05T04:34:26.900Z,19.93
2022-12-05T04:41:03.989Z,19.68
2022-12-05T04:44:23.501Z,20.03
2022-12-05T04:51:00.832Z,20.52
2022-12-05T04:57:36.665Z,21.03
2022-12-05T05:00:58.969Z,20.58
2022-12-05T05:04:21.563Z,20.45
2022-12-05T05:07:37.882Z,21.77
2022-12-05T05:11:00.706Z,21.60
2022-12-05T05:14:16.750Z,21.90
2022-12-05T05:17:32.926Z,22.75
2022-12-05T05:20:48.987Z,23.02
2022-12-05T05:24:06.699Z,23.15
2022-12-05T05:27:22.775Z,22.68
2022-12-05T05:30:38.914Z,23.88
2022-12-05T05:33:58.175Z,22.95
2022-12-05T05:37:14.295Z,25.28
2022-12-05T05:40:30.388Z,23.65
2022-12-05T05:43:48.976Z,25.63
2022-12-05T05:47:05.146Z,25.33
2022-12-05T05:50:22.222Z,25.35
2022-12-05T05:53:38.573Z,24.95
2022-12-05T05:56:54.869Z,23.63
2022-12-05T06:00:14.017Z,24.35
2022-12-05T06:03:30.174Z,26.43
2022-12-05T06:06:47.199Z,26.73
2022-12-05T06:10:03.308Z,24.58
2022-12-05T06:13:19.436Z,25.68
2022-12-05T06:16:36.752Z,27.50
2022-12-05T06:19:53.149Z,27.70
2022-12-05T06:26:27.693Z,32.28
2022-12-05T06:29:45.770Z,27.70
2022-12-05T06:33:03.070Z,27.28
2022-12-05T06:36:22.468Z,27.50
2022-12-05T06:42:54.280Z,27.00
2022-12-05T06:46:14.624Z,27.33
2022-12-05T06:49:37.604Z,26.38
2022-12-05T06:56:10.561Z,27.20
2022-12-05T07:02:42.164Z,27.53
2022-12-05T07:05:59.264Z,27.68
2022-12-05T07:12:32.499Z,27.78
2022-12-05T07:15:48.872Z,26.88
2022-12-05T07:19:05.517Z,27.10
2022-12-05T07:22:25.202Z,26.13
2022-12-05T07:26:51.405Z,28.48
2022-12-05T07:30:10.107Z,26.83
2022-12-05T07:33:26.234Z,28.10
2022-12-05T07:36:42.376Z,26.95
2022-12-05T07:43:14.518Z,26.73
2022-12-05T07:46:32.375Z,27.93
2022-12-05T07:49:48.426Z,26.80
2022-12-05T07:56:23.655Z,26.63
2022-12-05T07:59:40.008Z,27.28
2022-12-05T08:02:56.379Z,26.43
2022-12-05T08:06:15.328Z,27.20
2022-12-05T08:12:47.563Z,27.70
2022-12-05T08:16:07.782Z,27.98
2022-12-05T08:19:24.130Z,27.80
2022-12-05T08:22:40.416Z,28.70
2022-12-05T08:29:16.194Z,28.18
2022-12-05T08:32:32.644Z,26.83
2022-12-05T08:35:49.135Z,26.78
2022-12-05T08:39:10.420Z,30.40
2022-12-05T08:42:26.445Z,26.88
2022-12-05T08:45:42.867Z,27.23
2022-12-05T08:49:04.531Z,29.33
2022-12-05T08:52:22.801Z,28.75
2022-12-05T08:55:42.001Z,28.55
2022-12-05T08:59:04.743Z,29.00
2022-12-05T09:02:17.717Z,28.53
2022-12-05T09:05:34.399Z,25.60
2022-12-05T09:12:06.500Z,27.13
2022-12-05T09:15:23.548Z,25.53
2022-12-05T09:18:39.835Z,25.58
2022-12-05T09:21:56.009Z,27.38
2022-12-05T09:25:14.400Z,25.90
2022-12-05T09:28:30.784Z,24.98
2022-12-05T09:31:48.280Z,26.13
2022-12-05T09:35:05.150Z,26.23
2022-12-05T09:38:21.440Z,26.60
2022-12-05T09:42:11.677Z,25.58
2022-12-05T09:45:34.479Z,23.80
2022-12-05T09:48:50.921Z,26.65
2022-12-05T09:52:08.402Z,25.58
2022-12-05T09:55:27.263Z,25.00
2022-12-05T09:58:53.211Z,46.28
2022-12-05T10:02:29.439Z,36.38
2022-12-05T10:05:55.364Z,28.70
2022-12-05T10:13:00.367Z,26.90
2022-12-05T10:16:22.874Z,26.68
2022-12-05T10:19:43.933Z,28.08
2022-12-05T10:23:05.114Z,29.33
2022-12-05T10:26:24.273Z,26.63
2022-12-05T10:29:46.017Z,27.00
2022-12-05T10:33:09.731Z,25.85
2022-12-05T10:36:26.330Z,25.45
2022-12-05T10:42:59.194Z,28.68
2022-12-05T10:46:24.823Z,29.30
2022-12-05T10:49:54.735Z,72.85
2022-12-05T10:53:20.622Z,37.15
2022-12-05T10:56:53.786Z,26.73
2022-12-05T11:00:22.007Z,25.70
2022-12-05T11:03:43.114Z,26.05
2022-12-05T11:07:05.683Z,24.65
2022-12-05T11:10:33.708Z,22.93
2022-12-05T11:14:02.383Z,23.63
2022-12-05T11:17:29.464Z,23.53
2022-12-05T11:20:50.806Z,22.93
2022-12-05T11:27:38.943Z,23.15
2022-12-05T11:31:06.637Z,23.40
2022-12-05T11:34:37.969Z,25.38
2022-12-05T11:37:58.981Z,29.50
2022-12-05T11:41:33.262Z,24.70
2022-12-05T11:45:06.972Z,23.25
2022-12-05T11:48:54.645Z,23.45
2022-12-05T11:55:33.285Z,22.70
2022-12-05T11:59:25.648Z,23.58
2022-12-05T12:03:14.077Z,22.43
2022-12-05T12:06:42.332Z,22.05
2022-12-05T12:13:27.782Z,22.35
2022-12-05T12:16:54.976Z,22.88
2022-12-05T12:20:45.583Z,22.23
2022-12-05T12:24:41.711Z,21.25
2022-12-05T12:28:13.341Z,21.58
2022-12-05T12:31:58.902Z,23.05
2022-12-05T12:35:37.909Z,21.45
2022-12-05T12:39:51.069Z,19.83
2022-12-05T12:43:30.906Z,21.30
2022-12-05T12:46:43.906Z,21.35
2022-12-05T12:50:13.153Z,21.73
2022-12-05T12:53:57.994Z,22.53
2022-12-05T12:57:24.026Z,20.13
2022-12-05T13:00:51.176Z,22.43
2022-12-05T13:04:15.552Z,22.80
2022-12-05T13:07:38.613Z,27.00
2022-12-05T13:10:57.814Z,25.53
2022-12-05T13:14:20.170Z,20.23
2022-12-05T13:17:38.537Z,20.40
2022-12-05T13:20:58.639Z,20.28
2022-12-05T13:24:17.895Z,19.53
2022-12-05T13:28:04.570Z,19.58
2022-12-05T13:31:21.972Z,19.98
2022-12-05T13:34:53.823Z,21.13
2022-12-05T13:38:32.585Z,20.33
2022-12-05T13:42:12.493Z,18.63
2022-12-05T13:48:46.334Z,19.40
2022-12-05T13:52:02.915Z,19.65
2022-12-05T13:58:59.617Z,19.58
2022-12-05T14:02:52.276Z,18.93
2022-12-05T14:06:09.358Z,17.88
2022-12-05T14:15:10.052Z,17.20
2022-12-05T14:18:32.166Z,18.50
2022-12-05T14:21:56.330Z,17.85
2022-12-05T14:28:55.063Z,20.45
2022-12-05T14:32:28.100Z,19.68
2022-12-05T14:35:53.904Z,18.35
2022-12-05T14:39:31.017Z,19.25
2022-12-05T14:46:11.107Z,20.13
2022-12-05T14:50:10.401Z,20.70
2022-12-05T14:53:48.220Z,19.75
2022-12-05T14:57:17.165Z,18.50
2022-12-05T15:00:40.002Z,19.78
2022-12-05T15:04:35.533Z,19.78
2022-12-05T15:07:57.061Z,21.33
2022-12-05T15:14:33.933Z,21.38
2022-12-05T15:18:09.460Z,22.15
2022-12-05T15:21:34.734Z,22.08
2022-12-05T15:24:53.879Z,20.70
2022-12-05T15:31:29.288Z,19.95
2022-12-05T15:35:02.192Z,21.77
2022-12-05T15:38:30.699Z,20.50
2022-12-05T15:45:22.813Z,20.55
2022-12-05T15:48:43.611Z,21.43
2022-12-05T15:55:03.915Z,20.88
2022-12-05T15:58:26.245Z,19.98
2022-12-05T16:02:01.374Z,21.93
2022-12-05T16:05:31.352Z,22.43
2022-12-05T16:08:54.302Z,22.20
2022-12-05T16:12:36.542Z,22.50
2022-12-05T16:15:58.983Z,44.00
2022-12-05T16:19:23.928Z,26.85
2022-12-05T16:22:40.559Z,31.00
2022-12-05T16:25:57.839Z,32.85
2022-12-05T16:29:17.332Z,35.28
2022-12-05T16:35:53.036Z,37.03
2022-12-05T16:39:20.832Z,39.63
2022-12-05T16:42:40.729Z,40.60
2022-12-05T16:45:59.387Z,41.70
2022-12-05T16:49:45.814Z,39.27
2022-12-05T16:52:58.554Z,45.23
2022-12-05T16:56:20.792Z,46.45
2022-12-05T16:59:47.473Z,46.50
2022-12-05T17:03:32.294Z,45.18
2022-12-05T17:06:26.412Z,75.93
2022-12-05T17:09:43.287Z,52.93
2022-12-05T17:13:04.021Z,49.43
2022-12-05T17:16:21.405Z,46.03
2022-12-05T17:19:42.006Z,45.70
2022-12-05T17:22:59.961Z,46.83
2022-12-05T17:26:23.184Z,46.15
2022-12-05T17:29:40.459Z,46.43
2022-12-05T17:32:57.070Z,48.65
2022-12-05T17:36:17.953Z,45.18
2022-12-05T17:39:35.800Z,47.88
2022-12-05T17:42:54.536Z,46.10
2022-12-05T17:46:11.762Z,47.78
2022-12-05T17:49:28.236Z,47.23
2022-12-05T17:52:47.200Z,46.43
2022-12-05T17:56:03.915Z,47.13
2022-12-05T17:59:20.325Z,46.15
2022-12-05T18:05:53.711Z,46.85
2022-12-05T18:09:30.768Z,47.80
2022-12-05T18:12:48.084Z,53.55
2022-12-05T18:16:08.687Z,53.28
2022-12-05T18:19:26.088Z,48.78
2022-12-05T18:22:43.859Z,49.08
2022-12-05T18:26:09.537Z,47.78
2022-12-05T18:29:31.292Z,47.15
2022-12-05T18:32:47.805Z,48.93
2022-12-05T18:36:04.240Z,46.35
2022-12-05T18:39:22.819Z,49.00
2022-12-05T18:42:43.076Z,47.23
2022-12-05T18:46:08.074Z,44.80
2022-12-05T18:49:25.103Z,46.95
2022-12-05T18:52:42.736Z,47.73
2022-12-05T18:56:21.738Z,45.23
2022-12-05T18:59:26.545Z,48.20
2022-12-05T19:02:45.421Z,47.65
2022-12-05T19:06:02.038Z,46.90
2022-12-05T19:09:22.606Z,46.88
2022-12-05T19:12:39.711Z,47.68
2022-12-05T19:15:55.984Z,47.73
2022-12-05T19:19:16.258Z,48.90
2022-12-05T19:22:32.657Z,48.85
2022-12-05T19:25:48.886Z,50.28
2022-12-05T19:29:06.579Z,49.80
2022-12-05T19:32:27.181Z,49.38
2022-12-05T19:35:45.426Z,49.13
2022-12-05T19:39:05.298Z,50.80
2022-12-05T19:42:21.542Z,52.10
2022-12-05T19:45:37.841Z,51.25
2022-12-05T19:48:55.384Z,50.08
2022-12-05T19:52:12.306Z,49.68
2022-12-05T19:55:28.736Z,55.13
2022-12-05T19:58:46.245Z,51.68
2022-12-05T20:02:03.495Z,50.33
2022-12-05T20:05:33.035Z,50.88
2022-12-05T20:08:52.578Z,49.75
2022-12-05T20:12:08.907Z,50.25
2022-12-05T20:15:25.825Z,51.55
2022-12-05T20:18:43.924Z,51.80
2022-12-05T20:22:00.280Z,52.43
2022-12-05T20:25:17.652Z,49.48
2022-12-05T20:28:34.947Z,50.83
2022-12-05T20:31:52.996Z,50.15
2022-12-05T20:35:09.586Z,49.98
2022-12-05T20:38:25.851Z,50.40
2022-12-05T20:41:42.951Z,52.98
2022-12-05T20:45:01.138Z,51.45
2022-12-05T20:48:18.268Z,52.48
2022-12-05T20:51:37.056Z,51.80
2022-12-05T20:54:53.504Z,53.40
2022-12-05T20:58:09.595Z,55.20
2022-12-05T21:01:29.994Z,54.90
2022-12-05T21:04:48.465Z,54.15
2022-12-05T21:08:06.012Z,57.33
2022-12-05T21:11:31.696Z,55.33
2022-12-05T21:14:53.452Z,56.13
2022-12-05T21:18:09.865Z,63.80
2022-12-05T21:21:28.619Z,57.30
2022-12-05T21:24:44.395Z,55.70
2022-12-05T21:28:00.990Z,55.18
2022-12-05T21:31:22.012Z,56.90
2022-12-05T21:34:38.302Z,56.68
2022-12-05T21:37:55.747Z,57.80
2022-12-05T21:41:12.802Z,60.00
2022-12-05T21:44:28.994Z,58.38
2022-12-05T21:47:45.536Z,58.08
2022-12-05T21:51:03.211Z,57.35
2022-12-05T21:54:22.740Z,59.23
2022-12-05T22:00:56.055Z,56.05
2022-12-05T22:04:12.386Z,57.78
2022-12-05T22:07:28.623Z,58.08
2022-12-05T22:10:45.445Z,58.18
2022-12-05T22:14:01.943Z,58.58
2022-12-05T22:17:18.018Z,57.58
2022-12-05T22:20:35.489Z,59.63
2022-12-05T22:23:52.538Z,57.93
2022-12-05T22:27:09.008Z,57.68
2022-12-05T22:30:25.519Z,58.40
2022-12-05T22:33:42.379Z,55.70
2022-12-05T22:36:59.395Z,56.13
2022-12-05T22:40:18.086Z,56.78
2022-12-05T22:43:36.812Z,55.60
2022-12-05T22:46:53.694Z,55.90
2022-12-05T22:50:10.393Z,58.03
2022-12-05T22:53:29.416Z,57.53
2022-12-05T22:56:47.219Z,56.68
2022-12-05T23:00:03.988Z,53.83
2022-12-05T23:03:20.763Z,55.73
2022-12-05T23:06:39.441Z,54.80
2022-12-05T23:09:55.771Z,56.23
2022-12-05T23:13:12.315Z,54.35
2022-12-05T23:16:31.808Z,56.05
2022-12-05T23:19:49.585Z,56.45
2022-12-05T23:23:06.057Z,54.70
2022-12-05T23:26:23.954Z,52.05
2022-12-05T23:29:40.121Z,55.23
2022-12-05T23:32:56.428Z,58.68
2022-12-05T23:36:15.102Z,57.30
2022-12-05T23:39:31.933Z,59.03
2022-12-05T23:42:48.396Z,57.23
2022-12-05T23:46:05.379Z,55.58
2022-12-05T23:49:21.599Z,61.50
2022-12-05T23:52:38.543Z,62.38
2022-12-05T23:55:55.194Z,59.10
2022-12-05T23:59:13.194Z,59.53
